sensor_id;sensor_type;location;lat;lon;timestamp;temperature;humidity
27368;DHT22;14839;48.106;11.618;2023-02-21T05:01:26;0.80;94.60
27368;DHT22;14839;48.106;11.618;2023-02-21T05:03:52;0.90;94.60
27368;DHT22;14839;48.106;11.618;2023-02-21T05:06:23;0.90;94.60
27368;DHT22;14839;48.106;11.618;2023-02-21T05:08:49;0.90;94.60
27368;DHT22;14839;48.106;11.618;2023-02-21T05:11:15;1.00;94.60
27368;DHT22;14839;48.106;11.618;2023-02-21T05:13:41;1.00;94.60
27368;DHT22;14839;48.106;11.618;2023-02-21T05:16:07;1.00;94.60
27368;DHT22;14839;48.106;11.618;2023-02-21T05:18:33;1.10;94.60
27368;DHT22;14839;48.106;11.618;2023-02-21T05:20:59;1.10;94.60
27368;DHT22;14839;48.106;11.618;2023-02-21T05:23:25;1.20;94.60
27368;DHT22;14839;48.106;11.618;2023-02-21T05:26:03;1.20;94.60
27368;DHT22;14839;48.106;11.618;2023-02-21T05:28:29;1.30;94.60
27368;DHT22;14839;48.106;11.618;2023-02-21T05:30:55;1.40;94.60
27368;DHT22;14839;48.106;11.618;2023-02-21T05:33:21;1.40;94.60
27368;DHT22;14839;48.106;11.618;2023-02-21T05:35:47;1.60;94.60
27368;DHT22;14839;48.106;11.618;2023-02-21T05:38:14;1.60;94.60
27368;DHT22;14839;48.106;11.618;2023-02-21T05:40:39;1.70;94.60
27368;DHT22;14839;48.106;11.618;2023-02-21T05:43:05;1.70;94.60
27368;DHT22;14839;48.106;11.618;2023-02-21T05:45:31;1.80;94.60
27368;DHT22;14839;48.106;11.618;2023-02-21T05:47:56;1.80;94.60
27368;DHT22;14839;48.106;11.618;2023-02-21T05:50:25;1.90;94.60
27368;DHT22;14839;48.106;11.618;2023-02-21T05:52:51;1.90;94.60
27368;DHT22;14839;48.106;11.618;2023-02-21T05:55:17;1.90;94.60
27368;DHT22;14839;48.106;11.618;2023-02-21T05:57:43;2.00;94.60
27368;DHT22;14839;48.106;11.618;2023-02-21T06:00:21;2.00;94.60
27368;DHT22;14839;48.106;11.618;2023-02-21T06:02:48;2.00;94.60
27368;DHT22;14839;48.106;11.618;2023-02-21T06:05:15;2.10;94.60
27368;DHT22;14839;48.106;11.618;2023-02-21T06:07:41;2.20;94.60
27368;DHT22;14839;48.106;11.618;2023-02-21T06:10:06;2.30;94.60
27368;DHT22;14839;48.106;11.618;2023-02-21T06:12:32;2.40;94.60
27368;DHT22;14839;48.106;11.618;2023-02-21T06:14:58;2.40;94.60
27368;DHT22;14839;48.106;11.618;2023-02-21T06:17:23;2.60;94.60
27368;DHT22;14839;48.106;11.618;2023-02-21T06:19:49;2.60;94.60
27368;DHT22;14839;48.106;11.618;2023-02-21T06:22:14;2.60;94.60
27368;DHT22;14839;48.106;11.618;2023-02-21T06:24:40;2.70;94.60
27368;DHT22;14839;48.106;11.618;2023-02-21T06:27:06;2.70;94.60
27368;DHT22;14839;48.106;11.618;2023-02-21T06:29:31;2.70;94.60
27368;DHT22;14839;48.106;11.618;2023-02-21T06:31:58;2.80;94.60
27368;DHT22;14839;48.106;11.618;2023-02-21T06:34:23;2.80;94.60
27368;DHT22;14839;48.106;11.618;2023-02-21T06:36:54;2.90;94.60
27368;DHT22;14839;48.106;11.618;2023-02-21T06:39:21;3.00;94.60
27368;DHT22;14839;48.106;11.618;2023-02-21T06:41:49;3.00;94.60
27368;DHT22;14839;48.106;11.618;2023-02-21T06:44:15;3.10;94.60
27368;DHT22;14839;48.106;11.618;2023-02-21T06:46:42;3.20;94.60
27368;DHT22;14839;48.106;11.618;2023-02-21T06:49:08;3.30;94.60
27368;DHT22;14839;48.106;11.618;2023-02-21T06:51:38;3.40;94.60
27368;DHT22;14839;48.106;11.618;2023-02-21T06:54:05;3.40;94.60
27368;DHT22;14839;48.106;11.618;2023-02-21T06:56:32;3.50;94.60
27368;DHT22;14839;48.106;11.618;2023-02-21T06:58:58;3.50;94.60
27368;DHT22;14839;48.106;11.618;2023-02-21T07:01:25;3.60;94.60
27368;DHT22;14839;48.106;11.618;2023-02-21T07:03:52;3.70;94.60
27368;DHT22;14839;48.106;11.618;2023-02-21T07:06:18;3.80;94.60
27368;DHT22;14839;48.106;11.618;2023-02-21T07:08:44;3.90;94.60
27368;DHT22;14839;48.106;11.618;2023-02-21T07:11:09;4.10;94.60
27368;DHT22;14839;48.106;11.618;2023-02-21T07:13:35;4.30;94.60
27368;DHT22;14839;48.106;11.618;2023-02-21T07:16:01;4.50;94.60
27368;DHT22;14839;48.106;11.618;2023-02-21T07:18:27;4.70;94.60
27368;DHT22;14839;48.106;11.618;2023-02-21T07:20:53;5.00;94.30
27368;DHT22;14839;48.106;11.618;2023-02-21T07:23:18;5.40;92.90
27368;DHT22;14839;48.106;11.618;2023-02-21T07:25:44;6.10;91.40
27368;DHT22;14839;48.106;11.618;2023-02-21T07:28:10;6.60;88.40
27368;DHT22;14839;48.106;11.618;2023-02-21T07:30:36;7.20;86.90
27368;DHT22;14839;48.106;11.618;2023-02-21T07:33:01;7.40;84.80
27368;DHT22;14839;48.106;11.618;2023-02-21T07:35:27;7.90;84.50
27368;DHT22;14839;48.106;11.618;2023-02-21T07:37:53;8.00;81.80
27368;DHT22;14839;48.106;11.618;2023-02-21T07:40:19;8.20;81.70
27368;DHT22;14839;48.106;11.618;2023-02-21T07:42:45;8.70;80.80
27368;DHT22;14839;48.106;11.618;2023-02-21T07:45:13;9.40;78.50
27368;DHT22;14839;48.106;11.618;2023-02-21T07:47:39;9.90;76.30
27368;DHT22;14839;48.106;11.618;2023-02-21T07:50:05;10.30;74.20
27368;DHT22;14839;48.106;11.618;2023-02-21T07:52:31;10.40;73.90
27368;DHT22;14839;48.106;11.618;2023-02-21T07:54:57;10.30;73.40
27368;DHT22;14839;48.106;11.618;2023-02-21T07:57:23;10.50;74.00
27368;DHT22;14839;48.106;11.618;2023-02-21T07:59:48;10.90;72.40
27368;DHT22;14839;48.106;11.618;2023-02-21T08:02:14;11.10;70.90
27368;DHT22;14839;48.106;11.618;2023-02-21T08:04:40;11.30;69.80
27368;DHT22;14839;48.106;11.618;2023-02-21T08:07:06;11.80;69.20
27368;DHT22;14839;48.106;11.618;2023-02-21T08:09:32;12.20;67.70
27368;DHT22;14839;48.106;11.618;2023-02-21T08:11:58;11.90;68.00
27368;DHT22;14839;48.106;11.618;2023-02-21T08:14:24;12.00;68.50
27368;DHT22;14839;48.106;11.618;2023-02-21T08:16:49;12.20;67.10
27368;DHT22;14839;48.106;11.618;2023-02-21T08:19:15;12.30;66.50
27368;DHT22;14839;48.106;11.618;2023-02-21T08:21:44;12.20;67.60
27368;DHT22;14839;48.106;11.618;2023-02-21T08:24:11;12.70;66.20
27368;DHT22;14839;48.106;11.618;2023-02-21T08:26:36;13.20;64.00
27368;DHT22;14839;48.106;11.618;2023-02-21T08:29:02;13.30;63.10
27368;DHT22;14839;48.106;11.618;2023-02-21T08:31:28;13.40;63.20
27368;DHT22;14839;48.106;11.618;2023-02-21T08:33:54;13.80;62.60
27368;DHT22;14839;48.106;11.618;2023-02-21T08:36:19;14.00;62.00
27368;DHT22;14839;48.106;11.618;2023-02-21T08:38:45;13.90;62.20
27368;DHT22;14839;48.106;11.618;2023-02-21T08:41:11;14.30;60.40
27368;DHT22;14839;48.106;11.618;2023-02-21T08:43:36;14.60;61.00
27368;DHT22;14839;48.106;11.618;2023-02-21T08:46:02;15.00;60.00
27368;DHT22;14839;48.106;11.618;2023-02-21T08:48:28;15.50;58.10
27368;DHT22;14839;48.106;11.618;2023-02-21T08:50:53;15.80;57.00
27368;DHT22;14839;48.106;11.618;2023-02-21T08:53:19;15.80;56.70
27368;DHT22;14839;48.106;11.618;2023-02-21T08:55:44;15.90;55.70
27368;DHT22;14839;48.106;11.618;2023-02-21T08:58:11;16.40;54.70
27368;DHT22;14839;48.106;11.618;2023-02-21T09:00:37;16.00;55.30
27368;DHT22;14839;48.106;11.618;2023-02-21T09:03:03;16.40;54.50
27368;DHT22;14839;48.106;11.618;2023-02-21T09:05:30;16.40;54.70
27368;DHT22;14839;48.106;11.618;2023-02-21T09:07:58;16.50;54.40
27368;DHT22;14839;48.106;11.618;2023-02-21T09:10:28;16.70;54.20
27368;DHT22;14839;48.106;11.618;2023-02-21T09:12:54;16.60;55.10
27368;DHT22;14839;48.106;11.618;2023-02-21T09:15:20;17.00;54.10
27368;DHT22;14839;48.106;11.618;2023-02-21T09:17:46;17.00;53.50
27368;DHT22;14839;48.106;11.618;2023-02-21T09:20:16;17.20;52.90
27368;DHT22;14839;48.106;11.618;2023-02-21T09:22:45;17.60;52.40
27368;DHT22;14839;48.106;11.618;2023-02-21T09:25:12;17.90;51.40
27368;DHT22;14839;48.106;11.618;2023-02-21T09:27:41;18.20;49.60
27368;DHT22;14839;48.106;11.618;2023-02-21T09:30:25;18.10;50.10
27368;DHT22;14839;48.106;11.618;2023-02-21T09:32:51;18.00;49.90
27368;DHT22;14839;48.106;11.618;2023-02-21T09:35:17;17.90;50.10
27368;DHT22;14839;48.106;11.618;2023-02-21T09:37:44;18.00;50.10
27368;DHT22;14839;48.106;11.618;2023-02-21T09:42:57;18.00;50.20
27368;DHT22;14839;48.106;11.618;2023-02-21T09:45:26;18.00;48.30
27368;DHT22;14839;48.106;11.618;2023-02-21T09:47:57;18.30;48.00
27368;DHT22;14839;48.106;11.618;2023-02-21T09:50:26;17.90;49.60
27368;DHT22;14839;48.106;11.618;2023-02-21T09:52:56;17.70;49.20
27368;DHT22;14839;48.106;11.618;2023-02-21T09:55:33;17.90;48.90
27368;DHT22;14839;48.106;11.618;2023-02-21T09:58:00;18.00;49.30
27368;DHT22;14839;48.106;11.618;2023-02-21T10:00:35;18.30;48.90
27368;DHT22;14839;48.106;11.618;2023-02-21T10:03:30;18.30;49.50
27368;DHT22;14839;48.106;11.618;2023-02-21T10:08:56;18.60;47.90
27368;DHT22;14839;48.106;11.618;2023-02-21T10:14:29;19.10;46.70
27368;DHT22;14839;48.106;11.618;2023-02-21T10:17:31;18.90;46.50
27368;DHT22;14839;48.106;11.618;2023-02-21T10:20:03;18.40;46.70
27368;DHT22;14839;48.106;11.618;2023-02-21T10:22:34;19.00;46.70
27368;DHT22;14839;48.106;11.618;2023-02-21T10:25:19;19.30;45.20
27368;DHT22;14839;48.106;11.618;2023-02-21T10:27:46;19.10;45.40
27368;DHT22;14839;48.106;11.618;2023-02-21T10:30:28;18.90;45.80
27368;DHT22;14839;48.106;11.618;2023-02-21T10:32:55;19.00;46.80
27368;DHT22;14839;48.106;11.618;2023-02-21T10:35:21;19.00;47.40
27368;DHT22;14839;48.106;11.618;2023-02-21T10:37:51;19.40;45.50
27368;DHT22;14839;48.106;11.618;2023-02-21T10:40:47;19.60;44.20
27368;DHT22;14839;48.106;11.618;2023-02-21T10:46:08;19.40;45.10
27368;DHT22;14839;48.106;11.618;2023-02-21T10:48:37;19.00;45.60
27368;DHT22;14839;48.106;11.618;2023-02-21T10:51:09;18.50;45.50
27368;DHT22;14839;48.106;11.618;2023-02-21T10:53:38;18.40;46.70
27368;DHT22;14839;48.106;11.618;2023-02-21T10:56:18;18.40;47.30
27368;DHT22;14839;48.106;11.618;2023-02-21T11:04:06;19.10;45.20
27368;DHT22;14839;48.106;11.618;2023-02-21T11:06:57;18.80;45.40
27368;DHT22;14839;48.106;11.618;2023-02-21T11:09:34;18.50;45.90
27368;DHT22;14839;48.106;11.618;2023-02-21T11:15:16;18.00;47.00
27368;DHT22;14839;48.106;11.618;2023-02-21T11:17:42;17.70;48.60
27368;DHT22;14839;48.106;11.618;2023-02-21T11:22:56;17.80;47.40
27368;DHT22;14839;48.106;11.618;2023-02-21T11:25:30;17.40;47.90
27368;DHT22;14839;48.106;11.618;2023-02-21T11:30:39;17.50;48.50
27368;DHT22;14839;48.106;11.618;2023-02-21T11:33:08;17.70;49.00
27368;DHT22;14839;48.106;11.618;2023-02-21T11:35:46;17.50;48.80
27368;DHT22;14839;48.106;11.618;2023-02-21T11:43:51;17.30;47.40
27368;DHT22;14839;48.106;11.618;2023-02-21T11:54:17;16.50;49.90
27368;DHT22;14839;48.106;11.618;2023-02-21T11:56:53;16.50;50.20
27368;DHT22;14839;48.106;11.618;2023-02-21T12:09:59;16.60;50.80
27368;DHT22;14839;48.106;11.618;2023-02-21T12:13:00;16.50;52.40
27368;DHT22;14839;48.106;11.618;2023-02-21T12:21:47;16.20;52.20
27368;DHT22;14839;48.106;11.618;2023-02-21T12:27:14;16.20;52.90
27368;DHT22;14839;48.106;11.618;2023-02-21T12:38:30;16.40;51.90
27368;DHT22;14839;48.106;11.618;2023-02-21T12:46:57;16.20;53.00
27368;DHT22;14839;48.106;11.618;2023-02-21T12:49:57;16.30;52.70
27368;DHT22;14839;48.106;11.618;2023-02-21T12:52:45;16.20;52.20
27368;DHT22;14839;48.106;11.618;2023-02-21T12:55:21;16.00;52.00
27368;DHT22;14839;48.106;11.618;2023-02-21T12:57:59;16.10;52.70
27368;DHT22;14839;48.106;11.618;2023-02-21T13:00:42;15.90;53.20
27368;DHT22;14839;48.106;11.618;2023-02-21T13:03:37;15.70;54.10
27368;DHT22;14839;48.106;11.618;2023-02-21T13:06:18;15.70;53.80
27368;DHT22;14839;48.106;11.618;2023-02-21T13:11:28;15.70;53.90
27368;DHT22;14839;48.106;11.618;2023-02-21T13:13:57;15.70;54.50
27368;DHT22;14839;48.106;11.618;2023-02-21T13:16:24;15.70;54.70
27368;DHT22;14839;48.106;11.618;2023-02-21T13:18:57;15.60;53.50
27368;DHT22;14839;48.106;11.618;2023-02-21T13:21:45;15.60;54.20
27368;DHT22;14839;48.106;11.618;2023-02-21T13:27:31;15.80;54.40
27368;DHT22;14839;48.106;11.618;2023-02-21T13:30:34;15.80;54.50
27368;DHT22;14839;48.106;11.618;2023-02-21T13:33:01;15.70;53.80
27368;DHT22;14839;48.106;11.618;2023-02-21T13:35:38;15.50;54.70
27368;DHT22;14839;48.106;11.618;2023-02-21T13:38:05;15.60;55.10
27368;DHT22;14839;48.106;11.618;2023-02-21T13:40:47;15.60;54.80
27368;DHT22;14839;48.106;11.618;2023-02-21T13:43:30;15.60;55.40
27368;DHT22;14839;48.106;11.618;2023-02-21T13:57:48;15.70;55.70
27368;DHT22;14839;48.106;11.618;2023-02-21T14:10:52;15.60;57.00
27368;DHT22;14839;48.106;11.618;2023-02-21T14:18:45;15.60;57.00
27368;DHT22;14839;48.106;11.618;2023-02-21T14:21:34;15.70;57.90
27368;DHT22;14839;48.106;11.618;2023-02-21T14:34:54;15.60;56.40
27368;DHT22;14839;48.106;11.618;2023-02-21T14:37:37;15.60;57.00
27368;DHT22;14839;48.106;11.618;2023-02-21T14:43:05;15.60;56.90
27368;DHT22;14839;48.106;11.618;2023-02-21T15:00:03;15.30;58.80
27368;DHT22;14839;48.106;11.618;2023-02-21T15:02:50;15.30;58.90
27368;DHT22;14839;48.106;11.618;2023-02-21T15:08:23;15.20;57.90
27368;DHT22;14839;48.106;11.618;2023-02-21T15:10:52;15.20;58.20
27368;DHT22;14839;48.106;11.618;2023-02-21T15:13:32;15.20;58.40
27368;DHT22;14839;48.106;11.618;2023-02-21T15:16:06;15.30;58.20
27368;DHT22;14839;48.106;11.618;2023-02-21T15:18:34;15.30;58.10
27368;DHT22;14839;48.106;11.618;2023-02-21T15:21:04;15.30;58.80
27368;DHT22;14839;48.106;11.618;2023-02-21T15:23:30;15.30;58.50
27368;DHT22;14839;48.106;11.618;2023-02-21T15:25:58;15.20;58.80
27368;DHT22;14839;48.106;11.618;2023-02-21T15:28:30;15.00;59.40
27368;DHT22;14839;48.106;11.618;2023-02-21T15:31:07;15.00;58.80
27368;DHT22;14839;48.106;11.618;2023-02-21T15:33:39;15.00;59.20
27368;DHT22;14839;48.106;11.618;2023-02-21T15:36:07;14.90;60.10
27368;DHT22;14839;48.106;11.618;2023-02-21T15:38:56;14.80;60.20
27368;DHT22;14839;48.106;11.618;2023-02-21T15:44:45;14.60;61.00
27368;DHT22;14839;48.106;11.618;2023-02-21T15:47:06;14.50;61.90
27368;DHT22;14839;48.106;11.618;2023-02-21T15:49:34;14.30;61.70
27368;DHT22;14839;48.106;11.618;2023-02-21T15:52:03;14.40;61.40
27368;DHT22;14839;48.106;11.618;2023-02-21T15:54:31;14.40;61.40
27368;DHT22;14839;48.106;11.618;2023-02-21T15:57:23;14.50;60.40
27368;DHT22;14839;48.106;11.618;2023-02-21T16:00:16;14.60;60.50
27368;DHT22;14839;48.106;11.618;2023-02-21T16:02:41;14.50;60.80
27368;DHT22;14839;48.106;11.618;2023-02-21T16:05:26;14.50;61.10
27368;DHT22;14839;48.106;11.618;2023-02-21T16:07:52;14.30;61.40
27368;DHT22;14839;48.106;11.618;2023-02-21T16:10:20;14.20;62.60
27368;DHT22;14839;48.106;11.618;2023-02-21T16:12:54;14.10;62.20
27368;DHT22;14839;48.106;11.618;2023-02-21T16:15:43;14.00;62.30
27368;DHT22;14839;48.106;11.618;2023-02-21T16:18:14;13.90;63.20
27368;DHT22;14839;48.106;11.618;2023-02-21T16:20:42;13.70;64.40
27368;DHT22;14839;48.106;11.618;2023-02-21T16:26:02;13.30;66.20
27368;DHT22;14839;48.106;11.618;2023-02-21T16:28:29;13.10;67.10
27368;DHT22;14839;48.106;11.618;2023-02-21T16:30:59;12.90;67.40
27368;DHT22;14839;48.106;11.618;2023-02-21T16:33:26;12.80;69.50
27368;DHT22;14839;48.106;11.618;2023-02-21T16:35:52;12.70;69.10
27368;DHT22;14839;48.106;11.618;2023-02-21T16:38:19;12.70;69.70
27368;DHT22;14839;48.106;11.618;2023-02-21T16:40:46;12.50;69.70
27368;DHT22;14839;48.106;11.618;2023-02-21T16:43:26;12.40;70.10
27368;DHT22;14839;48.106;11.618;2023-02-21T16:45:53;12.20;71.00
27368;DHT22;14839;48.106;11.618;2023-02-21T16:48:23;12.00;71.80
27368;DHT22;14839;48.106;11.618;2023-02-21T16:50:50;11.90;72.40
27368;DHT22;14839;48.106;11.618;2023-02-21T16:53:17;11.70;73.40
27368;DHT22;14839;48.106;11.618;2023-02-21T16:55:43;11.50;74.50
27368;DHT22;14839;48.106;11.618;2023-02-21T16:58:27;11.30;75.10
27368;DHT22;14839;48.106;11.618;2023-02-21T17:00:55;11.20;75.80
27368;DHT22;14839;48.106;11.618;2023-02-21T17:03:21;11.00;76.40
27368;DHT22;14839;48.106;11.618;2023-02-21T17:05:47;10.80;77.90
27368;DHT22;14839;48.106;11.618;2023-02-21T17:08:14;10.70;79.40
27368;DHT22;14839;48.106;11.618;2023-02-21T17:10:39;10.70;79.30
27368;DHT22;14839;48.106;11.618;2023-02-21T17:13:05;10.60;79.10
27368;DHT22;14839;48.106;11.618;2023-02-21T17:15:30;10.60;79.00
27368;DHT22;14839;48.106;11.618;2023-02-21T17:17:59;10.50;79.90
27368;DHT22;14839;48.106;11.618;2023-02-21T17:20:25;10.40;80.00
27368;DHT22;14839;48.106;11.618;2023-02-21T17:22:52;10.30;80.50
27368;DHT22;14839;48.106;11.618;2023-02-21T17:25:19;10.30;80.90
27368;DHT22;14839;48.106;11.618;2023-02-21T17:27:45;10.30;81.40
27368;DHT22;14839;48.106;11.618;2023-02-21T17:30:11;10.20;82.00
27368;DHT22;14839;48.106;11.618;2023-02-21T17:32:37;10.10;81.70
27368;DHT22;14839;48.106;11.618;2023-02-21T17:35:03;10.00;82.40
27368;DHT22;14839;48.106;11.618;2023-02-21T17:37:29;9.90;82.90
27368;DHT22;14839;48.106;11.618;2023-02-21T17:39:55;9.80;83.30
27368;DHT22;14839;48.106;11.618;2023-02-21T17:42:21;9.70;83.80
27368;DHT22;14839;48.106;11.618;2023-02-21T17:44:47;9.60;84.10
27368;DHT22;14839;48.106;11.618;2023-02-21T17:47:17;9.50;84.80
27368;DHT22;14839;48.106;11.618;2023-02-21T17:49:43;9.40;85.70
27368;DHT22;14839;48.106;11.618;2023-02-21T17:52:08;9.40;86.30
27368;DHT22;14839;48.106;11.618;2023-02-21T17:54:34;9.40;85.90
27368;DHT22;14839;48.106;11.618;2023-02-21T17:56:59;9.40;85.70
27368;DHT22;14839;48.106;11.618;2023-02-21T17:59:25;9.40;86.20
27368;DHT22;14839;48.106;11.618;2023-02-21T18:01:53;9.30;86.80
27368;DHT22;14839;48.106;11.618;2023-02-21T18:04:19;9.50;86.00
27368;DHT22;14839;48.106;11.618;2023-02-21T18:06:45;9.50;85.70
27368;DHT22;14839;48.106;11.618;2023-02-21T18:09:10;9.40;86.00
27368;DHT22;14839;48.106;11.618;2023-02-21T18:11:36;9.20;86.50
27368;DHT22;14839;48.106;11.618;2023-02-21T18:14:03;9.10;86.60
27368;DHT22;14839;48.106;11.618;2023-02-21T18:16:28;9.00;87.50
27368;DHT22;14839;48.106;11.618;2023-02-21T18:18:54;8.80;88.60
27368;DHT22;14839;48.106;11.618;2023-02-21T18:21:20;8.70;88.70
27368;DHT22;14839;48.106;11.618;2023-02-21T18:23:48;8.70;88.70
27368;DHT22;14839;48.106;11.618;2023-02-21T18:26:14;8.70;89.30
27368;DHT22;14839;48.106;11.618;2023-02-21T18:28:40;8.60;89.80
27368;DHT22;14839;48.106;11.618;2023-02-21T18:31:05;8.60;89.60
27368;DHT22;14839;48.106;11.618;2023-02-21T18:33:31;8.50;90.10
27368;DHT22;14839;48.106;11.618;2023-02-21T18:35:57;8.50;90.50
27368;DHT22;14839;48.106;11.618;2023-02-21T18:38:24;8.40;90.40
27368;DHT22;14839;48.106;11.618;2023-02-21T18:40:50;8.30;90.70
27368;DHT22;14839;48.106;11.618;2023-02-21T18:43:21;8.20;90.90
27368;DHT22;14839;48.106;11.618;2023-02-21T18:45:49;8.20;91.40
27368;DHT22;14839;48.106;11.618;2023-02-21T18:48:15;8.10;91.10
27368;DHT22;14839;48.106;11.618;2023-02-21T18:50:41;7.90;91.30
27368;DHT22;14839;48.106;11.618;2023-02-21T18:53:07;7.80;91.80
27368;DHT22;14839;48.106;11.618;2023-02-21T18:55:33;7.70;92.70
27368;DHT22;14839;48.106;11.618;2023-02-21T18:57:59;7.60;92.70
27368;DHT22;14839;48.106;11.618;2023-02-21T19:00:25;7.60;92.70
27368;DHT22;14839;48.106;11.618;2023-02-21T19:02:51;7.50;92.90
27368;DHT22;14839;48.106;11.618;2023-02-21T19:05:20;7.40;93.20
27368;DHT22;14839;48.106;11.618;2023-02-21T19:07:46;7.30;93.40
27368;DHT22;14839;48.106;11.618;2023-02-21T19:10:18;7.20;93.90
27368;DHT22;14839;48.106;11.618;2023-02-21T19:12:45;7.10;94.10
27368;DHT22;14839;48.106;11.618;2023-02-21T19:15:11;7.10;94.40
27368;DHT22;14839;48.106;11.618;2023-02-21T19:17:36;7.00;94.40
27368;DHT22;14839;48.106;11.618;2023-02-21T19:20:03;6.90;94.50
27368;DHT22;14839;48.106;11.618;2023-02-21T19:22:30;6.90;94.50
27368;DHT22;14839;48.106;11.618;2023-02-21T19:24:56;6.80;94.60
27368;DHT22;14839;48.106;11.618;2023-02-21T19:27:23;6.70;94.60
27368;DHT22;14839;48.106;11.618;2023-02-21T19:29:50;6.60;94.60
27368;DHT22;14839;48.106;11.618;2023-02-21T19:32:15;6.60;94.60
27368;DHT22;14839;48.106;11.618;2023-02-21T19:34:46;6.50;94.60
27368;DHT22;14839;48.106;11.618;2023-02-21T19:37:12;6.40;94.60
27368;DHT22;14839;48.106;11.618;2023-02-21T19:39:38;6.30;94.60
27368;DHT22;14839;48.106;11.618;2023-02-21T19:42:05;6.30;94.60
27368;DHT22;14839;48.106;11.618;2023-02-21T19:44:30;6.20;94.60
27368;DHT22;14839;48.106;11.618;2023-02-21T19:46:56;6.20;94.60
27368;DHT22;14839;48.106;11.618;2023-02-21T19:49:22;6.10;94.60
27368;DHT22;14839;48.106;11.618;2023-02-21T19:51:51;6.10;94.60
27368;DHT22;14839;48.106;11.618;2023-02-21T19:54:19;6.00;94.60
27368;DHT22;14839;48.106;11.618;2023-02-21T19:56:45;5.90;94.60
27368;DHT22;14839;48.106;11.618;2023-02-21T19:59:11;5.90;94.60
27368;DHT22;14839;48.106;11.618;2023-02-21T20:01:37;5.90;94.60
27368;DHT22;14839;48.106;11.618;2023-02-21T20:04:03;5.80;94.60
27368;DHT22;14839;48.106;11.618;2023-02-21T20:06:31;5.80;94.60
27368;DHT22;14839;48.106;11.618;2023-02-21T20:09:02;5.70;94.60
27368;DHT22;14839;48.106;11.618;2023-02-21T20:11:28;5.70;94.60
27368;DHT22;14839;48.106;11.618;2023-02-21T20:13:54;5.60;94.60
27368;DHT22;14839;48.106;11.618;2023-02-21T20:16:19;5.50;94.60
27368;DHT22;14839;48.106;11.618;2023-02-21T20:18:48;5.50;94.60
27368;DHT22;14839;48.106;11.618;2023-02-21T20:23:43;5.40;94.60
27368;DHT22;14839;48.106;11.618;2023-02-21T20:26:10;5.40;94.60
27368;DHT22;14839;48.106;11.618;2023-02-21T20:28:36;5.30;94.60
27368;DHT22;14839;48.106;11.618;2023-02-21T20:31:01;5.30;94.60
27368;DHT22;14839;48.106;11.618;2023-02-21T20:33:27;5.20;94.60
27368;DHT22;14839;48.106;11.618;2023-02-21T20:35:53;5.20;94.60
27368;DHT22;14839;48.106;11.618;2023-02-21T20:38:18;5.10;94.60
27368;DHT22;14839;48.106;11.618;2023-02-21T20:40:44;5.10;94.60
27368;DHT22;14839;48.106;11.618;2023-02-21T20:43:10;5.00;94.60
27368;DHT22;14839;48.106;11.618;2023-02-21T20:45:36;5.00;94.60
27368;DHT22;14839;48.106;11.618;2023-02-21T20:48:06;5.00;94.60
27368;DHT22;14839;48.106;11.618;2023-02-21T20:50:32;4.90;94.60
27368;DHT22;14839;48.106;11.618;2023-02-21T20:52:59;4.90;94.60
27368;DHT22;14839;48.106;11.618;2023-02-21T20:55:25;4.80;94.60
27368;DHT22;14839;48.106;11.618;2023-02-21T20:57:51;4.70;94.60
27368;DHT22;14839;48.106;11.618;2023-02-21T21:00:17;4.70;94.60
27368;DHT22;14839;48.106;11.618;2023-02-21T21:02:50;4.70;94.60
27368;DHT22;14839;48.106;11.618;2023-02-21T21:05:16;4.60;94.60
27368;DHT22;14839;48.106;11.618;2023-02-21T21:07:43;4.60;94.60
27368;DHT22;14839;48.106;11.618;2023-02-21T21:10:11;4.60;94.60
27368;DHT22;14839;48.106;11.618;2023-02-21T21:12:39;4.50;94.60
27368;DHT22;14839;48.106;11.618;2023-02-21T21:15:06;4.50;94.60
27368;DHT22;14839;48.106;11.618;2023-02-21T21:17:35;4.40;94.60
27368;DHT22;14839;48.106;11.618;2023-02-21T21:20:02;4.40;94.60
27368;DHT22;14839;48.106;11.618;2023-02-21T21:22:33;4.40;94.60
27368;DHT22;14839;48.106;11.618;2023-02-21T21:24:58;4.40;94.60
27368;DHT22;14839;48.106;11.618;2023-02-21T21:27:24;4.40;94.60
27368;DHT22;14839;48.106;11.618;2023-02-21T21:29:51;4.30;94.60
27368;DHT22;14839;48.106;11.618;2023-02-21T21:32:20;4.30;94.60
27368;DHT22;14839;48.106;11.618;2023-02-21T21:34:50;4.20;94.60
27368;DHT22;14839;48.106;11.618;2023-02-21T21:37:21;4.20;94.60
27368;DHT22;14839;48.106;11.618;2023-02-21T21:39:49;4.20;94.60
27368;DHT22;14839;48.106;11.618;2023-02-21T21:42:19;4.20;94.60
27368;DHT22;14839;48.106;11.618;2023-02-21T21:44:47;4.20;94.60
27368;DHT22;14839;48.106;11.618;2023-02-21T21:47:21;4.20;94.60
27368;DHT22;14839;48.106;11.618;2023-02-21T21:49:47;4.10;94.60
27368;DHT22;14839;48.106;11.618;2023-02-21T21:52:14;4.10;94.60
27368;DHT22;14839;48.106;11.618;2023-02-21T21:54:42;4.00;94.60
27368;DHT22;14839;48.106;11.618;2023-02-21T21:57:11;4.00;94.60
27368;DHT22;14839;48.106;11.618;2023-02-21T21:59:37;3.90;94.60
27368;DHT22;14839;48.106;11.618;2023-02-21T22:02:05;3.90;94.60
27368;DHT22;14839;48.106;11.618;2023-02-21T22:04:32;3.80;94.60
27368;DHT22;14839;48.106;11.618;2023-02-21T22:06:58;3.80;94.60
27368;DHT22;14839;48.106;11.618;2023-02-21T22:09:24;3.70;94.60
27368;DHT22;14839;48.106;11.618;2023-02-21T22:11:50;3.70;94.60
27368;DHT22;14839;48.106;11.618;2023-02-21T22:14:18;3.70;94.60
27368;DHT22;14839;48.106;11.618;2023-02-21T22:16:45;3.70;94.60
27368;DHT22;14839;48.106;11.618;2023-02-21T22:19:12;3.70;94.60
27368;DHT22;14839;48.106;11.618;2023-02-21T22:21:38;3.60;94.60
27368;DHT22;14839;48.106;11.618;2023-02-21T22:24:04;3.50;94.60
27368;DHT22;14839;48.106;11.618;2023-02-21T22:26:32;3.50;94.60
27368;DHT22;14839;48.106;11.618;2023-02-21T22:28:58;3.40;94.60
